Time;durP1;ratioP1;P1;durP2;ratioP2;P2;SDS_P1;SDS_P2;PMS_P1;PMS_P2;Temp;Humidity;BMP_temperature;BMP_pressure;BME280_temperature;BME280_humidity;BME280_pressure;Samples;Min_cycle;Max_cycle;Signal;HPM_P1;HPM_P2
2022/09/16 00:00:40;;;;;;;3.13;1.58;;;;;;;20.65;41.90;101935.44;5032640;28;20033;-78
2022/09/16 00:03:06;;;;;;;3.63;1.83;;;;;;;20.70;41.78;101939.91;5034429;28;20029;-78
2022/09/16 00:05:31;;;;;;;5.30;1.50;;;;;;;20.66;41.90;101945.38;5034486;28;20029;-78
2022/09/16 00:07:57;;;;;;;4.65;2.35;;;;;;;20.63;41.98;101948.03;5032821;28;20029;-78
2022/09/16 00:10:23;;;;;;;5.07;1.83;;;;;;;20.62;41.86;101940.88;5015463;28;20030;-78
2022/09/16 00:12:49;;;;;;;6.05;1.67;;;;;;;20.54;41.95;101936.25;5014508;28;20030;-78
2022/09/16 00:15:15;;;;;;;2.60;1.20;;;;;;;20.45;42.28;101940.00;5014360;28;20036;-78
2022/09/16 00:17:40;;;;;;;6.28;1.80;;;;;;;20.42;42.35;101942.66;5014410;28;20029;-77
2022/09/16 00:20:07;;;;;;;4.28;1.60;;;;;;;20.46;42.06;101941.59;5028563;28;20034;-78
2022/09/16 00:22:33;;;;;;;3.05;1.67;;;;;;;20.36;42.33;101944.03;5032802;28;20067;-77
2022/09/16 00:24:58;;;;;;;4.57;1.70;;;;;;;20.23;42.60;101940.47;5034120;28;20033;-78
2022/09/16 00:27:24;;;;;;;8.35;1.55;;;;;;;20.30;42.35;101943.47;5034044;28;20032;-78
2022/09/16 00:29:49;;;;;;;3.85;1.70;;;;;;;20.24;42.38;101948.44;5022000;28;20026;-77
2022/09/16 00:32:15;;;;;;;4.97;1.65;;;;;;;20.20;42.52;101941.19;5014138;28;20392;-78
2022/09/16 00:34:41;;;;;;;5.00;1.73;;;;;;;20.18;42.62;101940.72;5014121;28;20025;-76
2022/09/16 00:37:08;;;;;;;4.85;2.30;;;;;;;20.23;42.23;101943.25;5014033;28;20384;-78
2022/09/16 00:39:35;;;;;;;4.20;1.40;;;;;;;20.20;42.46;101944.75;5021990;28;20061;-78
2022/09/16 00:42:02;;;;;;;4.00;2.10;;;;;;;20.18;42.53;101946.28;5033706;28;20026;-76
2022/09/16 00:44:54;;;;;;;4.20;1.52;;;;;;;20.10;42.77;101950.81;5032499;28;20018;-76
2022/09/16 00:47:39;;;;;;;4.32;1.80;;;;;;;20.09;42.77;101948.34;5034005;28;20024;-77
2022/09/16 00:50:25;;;;;;;5.93;1.67;;;;;;;20.05;42.75;101948.25;5033058;28;20021;-78
2022/09/16 00:52:52;;;;;;;6.68;2.33;;;;;;;20.05;42.69;101953.81;5033154;28;20029;-78
2022/09/16 00:55:22;;;;;;;5.18;1.45;;;;;;;20.15;42.36;101949.75;5033579;28;20043;-77
2022/09/16 00:57:49;;;;;;;4.13;2.05;;;;;;;20.11;42.60;101954.38;5033518;28;20472;-78
2022/09/16 01:00:15;;;;;;;5.93;1.95;;;;;;;20.04;42.67;101956.94;5014718;28;20389;-78
2022/09/16 01:02:44;;;;;;;8.00;2.50;;;;;;;19.96;43.04;101950.34;5012435;28;20026;-78
2022/09/16 01:05:16;;;;;;;10.70;2.13;;;;;;;19.90;43.25;101952.53;5013626;28;20076;-76
2022/09/16 01:07:45;;;;;;;4.03;1.63;;;;;;;19.94;43.05;101953.44;5013484;28;20030;-78
2022/09/16 01:10:16;;;;;;;5.07;1.80;;;;;;;19.94;42.87;101955.41;5030318;28;20099;-78
2022/09/16 01:12:44;;;;;;;6.53;2.10;;;;;;;19.88;43.17;101954.84;5033122;28;20045;-79
2022/09/16 01:15:11;;;;;;;4.93;1.90;;;;;;;19.82;43.29;101964.56;5033143;28;20029;-78
2022/09/16 01:17:45;;;;;;;5.53;2.70;;;;;;;19.83;43.15;101963.41;5032674;28;20063;-78
2022/09/16 01:20:36;;;;;;;3.78;1.30;;;;;;;19.69;43.59;101974.03;5032220;28;20026;-77
2022/09/16 01:23:39;;;;;;;7.20;1.85;;;;;;;19.74;43.31;101982.13;5033031;28;20385;-78
2022/09/16 01:26:47;;;;;;;3.65;1.60;;;;;;;19.75;43.32;101969.88;4995904;28;20034;-78
2022/09/16 01:29:25;;;;;;;4.13;1.52;;;;;;;19.79;43.25;101964.44;5023971;28;20089;-78
2022/09/16 01:32:17;;;;;;;4.10;1.60;;;;;;;19.77;43.18;101981.41;5013290;28;20054;-78
2022/09/16 01:35:23;;;;;;;7.93;2.63;;;;;;;19.75;43.43;101980.97;5013152;28;20076;-78
2022/09/16 01:38:14;;;;;;;7.45;1.83;;;;;;;19.75;43.24;101983.72;5013075;28;20030;-78
2022/09/16 01:40:48;;;;;;;4.80;2.00;;;;;;;19.78;43.22;101991.34;5012924;28;20074;-78
2022/09/16 01:43:28;;;;;;;5.25;1.60;;;;;;;19.69;43.45;101987.88;5013063;28;20548;-78
2022/09/16 01:46:29;;;;;;;3.40;1.70;;;;;;;19.70;43.18;101983.94;5012938;28;20028;-77
2022/09/16 01:49:02;;;;;;;8.77;2.13;;;;;;;19.63;43.35;101984.50;4999177;28;20038;-78
2022/09/16 01:51:35;;;;;;;3.58;1.55;;;;;;;19.61;43.50;101983.25;5011679;28;20472;-77
2022/09/16 01:54:33;;;;;;;3.97;1.60;;;;;;;19.66;43.37;101992.16;5012848;28;20025;-77
2022/09/16 01:57:02;;;;;;;5.35;2.03;;;;;;;19.59;43.42;101991.91;5009537;28;20382;-76
2022/09/16 01:59:42;;;;;;;8.03;1.73;;;;;;;19.61;43.40;101997.91;5020723;28;20128;-77
2022/09/16 02:02:10;;;;;;;3.80;1.35;;;;;;;19.59;43.37;102007.75;5030529;28;20055;-78
2022/09/16 02:04:41;;;;;;;5.53;1.85;;;;;;;19.56;43.49;102000.06;5022304;28;20602;-76
2022/09/16 02:07:10;;;;;;;3.72;1.88;;;;;;;19.48;43.53;101999.00;5032132;28;20151;-76
2022/09/16 02:09:44;;;;;;;4.20;1.60;;;;;;;19.44;43.70;102002.84;5020549;28;20034;-77
2022/09/16 02:12:15;;;;;;;4.38;1.70;;;;;;;19.45;43.54;102005.25;5013479;28;20038;-77
2022/09/16 02:14:43;;;;;;;21.08;3.47;;;;;;;19.45;43.40;102004.44;5012700;28;20053;-77
2022/09/16 02:17:15;;;;;;;8.60;2.30;;;;;;;19.41;43.45;101999.56;5012593;28;20468;-76
2022/09/16 02:19:54;;;;;;;5.18;1.40;;;;;;;19.38;43.50;102003.03;5022046;28;20026;-77
2022/09/16 02:22:29;;;;;;;2.00;1.43;;;;;;;19.37;43.39;101995.06;5031971;28;20052;-76
2022/09/16 02:24:54;;;;;;;2.97;1.85;;;;;;;19.34;43.50;102001.28;5032364;28;20028;-77
2022/09/16 02:27:21;;;;;;;3.08;1.88;;;;;;;19.24;43.66;101991.44;5032327;28;20026;-77
2022/09/16 02:29:58;;;;;;;3.35;1.35;;;;;;;19.15;43.88;101989.91;5017183;28;20034;-77
2022/09/16 02:32:28;;;;;;;7.43;1.58;;;;;;;19.09;43.86;101992.09;5014939;28;20108;-78
2022/09/16 02:34:55;;;;;;;4.25;1.58;;;;;;;19.20;43.69;101995.25;5016374;28;20153;-77
2022/09/16 02:37:28;;;;;;;6.28;1.90;;;;;;;19.16;43.78;102002.63;5016323;28;20030;-77
2022/09/16 02:40:00;;;;;;;5.78;1.50;;;;;;;19.06;43.85;101990.81;5031949;28;20033;-78
2022/09/16 02:42:27;;;;;;;8.48;1.77;;;;;;;19.16;43.78;101984.03;5036076;28;20361;-78
2022/09/16 02:44:54;;;;;;;5.05;1.70;;;;;;;19.13;43.80;101988.31;5035939;28;20060;-78
2022/09/16 02:47:36;;;;;;;3.47;1.40;;;;;;;18.92;44.29;101990.28;5035895;28;20033;-77
2022/09/16 02:50:23;;;;;;;4.97;1.30;;;;;;;19.09;43.74;101992.91;5035307;28;20494;-78
2022/09/16 02:53:06;;;;;;;4.88;1.75;;;;;;;19.08;43.82;101991.28;5034578;28;20029;-78
2022/09/16 02:55:58;;;;;;;5.47;1.60;;;;;;;19.00;43.80;101992.16;5035725;28;20028;-78
2022/09/16 02:58:23;;;;;;;7.20;1.77;;;;;;;19.06;43.69;101995.56;5033682;28;20083;-78
2022/09/16 03:00:53;;;;;;;6.75;2.42;;;;;;;19.02;43.71;101989.88;5035662;28;20112;-78
2022/09/16 03:03:19;;;;;;;4.32;1.40;;;;;;;19.05;43.61;101993.94;5035621;28;20029;-78
2022/09/16 03:06:12;;;;;;;3.88;1.67;;;;;;;19.00;43.75;101994.13;5035558;28;20060;-77
2022/09/16 03:08:39;;;;;;;5.95;1.60;;;;;;;18.97;43.75;101997.59;5030290;28;20052;-77
2022/09/16 03:11:19;;;;;;;5.43;1.67;;;;;;;18.82;43.98;101994.28;5015779;28;20173;-78
2022/09/16 03:14:01;;;;;;;5.88;1.63;;;;;;;18.80;44.19;101999.34;5015663;28;20088;-77
2022/09/16 03:16:39;;;;;;;3.53;1.65;;;;;;;18.80;43.99;101996.56;5015484;28;20068;-76
2022/09/16 03:19:25;;;;;;;6.40;1.98;;;;;;;18.81;43.95;102000.16;5023676;28;20014;-77
2022/09/16 03:22:05;;;;;;;3.70;1.55;;;;;;;18.94;43.61;101989.94;5035273;28;20049;-77
2022/09/16 03:24:43;;;;;;;;;;;;;;;18.89;43.52;101985.41;5034388;28;20541;-78
2022/09/16 03:27:28;;;;;;;6.78;1.38;;;;;;;18.90;43.58;101989.84;5035197;28;19921;-78
2022/09/16 03:30:00;;;;;;;5.47;1.40;;;;;;;18.90;43.43;101989.03;5017841;28;20548;-76
2022/09/16 03:32:43;;;;;;;4.75;1.75;;;;;;;18.87;43.48;102001.56;5015320;28;20030;-76
2022/09/16 03:35:33;;;;;;;10.07;1.92;;;;;;;18.83;43.55;101993.16;5010162;28;20022;-78
2022/09/16 03:38:00;;;;;;;5.32;1.80;;;;;;;18.86;43.33;101999.94;5017354;28;20036;-78
2022/09/16 03:40:28;;;;;;;10.48;1.83;;;;;;;18.80;43.43;101999.34;5033575;28;20030;-78
2022/09/16 03:42:56;;;;;;;3.58;1.55;;;;;;;18.71;43.77;101989.50;5031536;28;20021;-78
2022/09/16 03:45:22;;;;;;;6.00;1.67;;;;;;;18.67;43.79;101996.88;5034826;28;20045;-78
2022/09/16 03:47:50;;;;;;;8.27;2.17;;;;;;;18.67;43.56;101994.91;5033972;28;20033;-78
2022/09/16 03:50:17;;;;;;;3.17;1.65;;;;;;;18.65;43.51;101997.16;5015069;28;20113;-78
2022/09/16 03:52:43;;;;;;;4.95;1.30;;;;;;;18.62;43.54;101997.84;5015110;28;20033;-78
2022/09/16 03:55:10;;;;;;;6.28;1.83;;;;;;;18.58;43.59;102002.41;5014913;28;20688;-79
2022/09/16 03:57:36;;;;;;;3.65;1.58;;;;;;;18.57;43.62;102000.78;5015007;28;20144;-79
2022/09/16 04:00:04;;;;;;;4.70;1.58;;;;;;;18.52;43.33;101998.25;5044996;28;20602;-79
2022/09/16 04:02:32;;;;;;;8.90;2.22;;;;;;;18.51;43.53;102002.13;5014698;28;20045;-79
2022/09/16 04:04:57;;;;;;;7.13;1.95;;;;;;;18.47;43.46;101995.66;5014784;28;20032;-78
2022/09/16 04:07:23;;;;;;;4.25;1.52;;;;;;;18.40;43.48;102004.50;5015569;28;20030;-79
2022/09/16 04:09:48;;;;;;;2.97;1.35;;;;;;;18.35;43.51;102001.91;5033224;28;20067;-78
2022/09/16 04:12:14;;;;;;;6.50;1.70;;;;;;;18.39;43.46;101999.31;5034288;28;20046;-79
2022/09/16 04:14:40;;;;;;;5.88;1.50;;;;;;;18.33;43.41;102006.97;5034274;28;20029;-78
2022/09/16 04:17:05;;;;;;;7.68;1.58;;;;;;;18.29;43.53;102001.31;5034081;28;20068;-78
2022/09/16 04:19:31;;;;;;;2.67;1.52;;;;;;;18.28;43.69;102002.44;5015297;28;20065;-78
2022/09/16 04:21:57;;;;;;;3.22;1.30;;;;;;;18.32;43.67;102005.38;5014439;28;20064;-77
2022/09/16 04:24:23;;;;;;;5.95;1.20;;;;;;;18.33;43.82;102004.22;5014483;28;20528;-77
2022/09/16 04:26:48;;;;;;;4.25;1.17;;;;;;;18.34;44.05;102003.06;5014235;28;20033;-78
2022/09/16 04:29:14;;;;;;;3.15;1.17;;;;;;;18.41;43.75;102002.53;5028774;28;20028;-78
2022/09/16 04:31:40;;;;;;;4.93;1.95;;;;;;;18.36;44.00;102005.50;5032944;28;20025;-78
2022/09/16 04:34:05;;;;;;;14.30;2.08;;;;;;;18.37;43.78;102004.38;5021355;28;20059;-78
2022/09/16 04:36:32;;;;;;;8.88;1.83;;;;;;;18.36;43.89;102006.31;5024743;28;20132;-78
2022/09/16 04:38:57;;;;;;;9.10;1.90;;;;;;;18.27;44.09;102003.59;5023319;28;20873;-79
2022/09/16 04:41:25;;;;;;;6.57;1.60;;;;;;;18.28;44.12;102007.16;5022383;28;20037;-79
2022/09/16 04:43:56;;;;;;;7.15;1.63;;;;;;;18.28;43.98;102016.28;5023875;28;20041;-79
2022/09/16 04:46:24;;;;;;;4.75;1.25;;;;;;;18.25;43.98;102002.31;5022441;28;20101;-79
2022/09/16 04:48:51;;;;;;;10.32;2.22;;;;;;;18.18;44.33;102010.31;5020363;28;20507;-79
2022/09/16 04:51:18;;;;;;;3.92;1.35;;;;;;;18.30;43.90;102008.47;5021751;28;20045;-79
2022/09/16 04:53:44;;;;;;;12.70;2.72;;;;;;;18.26;44.01;102017.75;5021412;28;20522;-79
2022/09/16 04:56:16;;;;;;;4.90;1.50;;;;;;;18.17;44.26;102017.00;5019820;28;20025;-79
2022/09/16 04:58:45;;;;;;;12.60;2.05;;;;;;;18.27;44.07;102014.66;5022949;28;20099;-79
2022/09/16 05:01:16;;;;;;;9.15;1.83;;;;;;;18.25;44.13;102021.69;5020159;28;20025;-79
2022/09/16 05:03:44;;;;;;;3.92;1.40;;;;;;;18.26;43.99;102023.28;5019549;28;20037;-80
2022/09/16 05:06:15;;;;;;;7.55;1.45;;;;;;;18.25;44.13;102022.50;5023453;28;20372;-78
2022/09/16 05:08:41;;;;;;;4.40;1.52;;;;;;;18.32;44.03;102032.22;5023553;28;20104;-78
2022/09/16 05:11:13;;;;;;;8.27;1.40;;;;;;;18.25;44.22;102033.56;5020582;28;20465;-78
2022/09/16 05:13:39;;;;;;;7.15;1.65;;;;;;;18.31;43.86;102031.41;5022657;28;20104;-79
2022/09/16 05:16:07;;;;;;;6.75;1.50;;;;;;;18.24;44.04;102036.66;5023366;28;20106;-77
2022/09/16 05:18:34;;;;;;;9.15;2.20;;;;;;;18.08;44.06;102041.94;5022079;28;20024;-78
2022/09/16 05:21:01;;;;;;;14.90;2.40;;;;;;;17.91;44.84;102042.00;5017595;28;20033;-78
2022/09/16 05:23:27;;;;;;;6.15;1.88;;;;;;;17.91;44.78;102042.00;5023749;28;20061;-79
2022/09/16 05:25:53;;;;;;;5.50;1.83;;;;;;;18.02;44.42;102041.31;5018058;28;20425;-77
2022/09/16 05:28:19;;;;;;;7.20;1.73;;;;;;;18.01;44.71;102033.34;5013313;28;20116;-78
2022/09/16 05:30:44;;;;;;;7.32;1.65;;;;;;;18.02;44.43;102034.97;5011915;28;20072;-77
2022/09/16 05:33:10;;;;;;;4.30;1.20;;;;;;;18.02;44.44;102038.56;5011919;28;20057;-76
2022/09/16 05:35:35;;;;;;;3.97;1.73;;;;;;;18.05;44.19;102039.03;5013087;28;20061;-77
2022/09/16 05:38:01;;;;;;;8.07;1.85;;;;;;;17.96;44.37;102041.81;5016002;28;20037;-77
2022/09/16 05:40:27;;;;;;;6.43;1.30;;;;;;;17.88;44.72;102043.47;5032705;28;20037;-78
2022/09/16 05:42:54;;;;;;;12.88;2.60;;;;;;;17.83;44.69;102051.13;5032880;28;20491;-77
2022/09/16 05:45:19;;;;;;;8.32;1.42;;;;;;;17.81;44.69;102045.13;5032788;28;20431;-77
2022/09/16 05:47:48;;;;;;;11.93;2.35;;;;;;;17.80;44.81;102049.84;5031933;28;20100;-78
2022/09/16 05:50:14;;;;;;;4.57;1.73;;;;;;;17.71;44.80;102049.09;5011645;28;20049;-78
2022/09/16 05:52:40;;;;;;;6.53;2.25;;;;;;;17.82;44.62;102049.53;5012980;28;20469;-78
2022/09/16 05:55:07;;;;;;;5.93;2.28;;;;;;;17.74;44.64;102057.50;5012881;28;20036;-76
2022/09/16 05:57:33;;;;;;;10.13;1.95;;;;;;;17.73;44.58;102061.41;5017007;28;20034;-77
2022/09/16 05:59:58;;;;;;;7.95;1.67;;;;;;;17.74;44.37;102057.50;5032517;28;20048;-77
2022/09/16 06:02:24;;;;;;;13.82;2.28;;;;;;;17.73;44.57;102066.94;5019324;28;20033;-78
2022/09/16 06:04:50;;;;;;;10.40;2.45;;;;;;;17.60;44.90;102064.34;5012836;28;20460;-78
2022/09/16 06:07:16;;;;;;;7.10;1.42;;;;;;;17.58;45.10;102074.91;5012773;28;20484;-76
2022/09/16 06:09:42;;;;;;;4.82;1.30;;;;;;;17.63;44.76;102066.47;5011601;28;20470;-78
2022/09/16 06:12:09;;;;;;;10.45;1.55;;;;;;;17.44;45.23;102078.69;5012580;28;20065;-77
2022/09/16 06:14:35;;;;;;;8.82;2.38;;;;;;;17.56;45.17;102077.22;5012732;28;20022;-77
2022/09/16 06:17:01;;;;;;;8.05;2.15;;;;;;;17.52;45.19;102079.00;5012680;28;20038;-79
2022/09/16 06:19:27;;;;;;;10.60;1.75;;;;;;;17.54;45.01;102082.25;5029191;28;20512;-77
2022/09/16 06:21:52;;;;;;;3.10;1.65;;;;;;;17.56;45.37;102077.22;5032302;28;20030;-78
2022/09/16 06:24:19;;;;;;;9.65;2.33;;;;;;;17.72;45.01;102081.09;5032306;28;20108;-79
2022/09/16 06:26:46;;;;;;;4.68;1.80;;;;;;;17.71;45.04;102085.81;5032475;28;20057;-79
2022/09/16 06:29:13;;;;;;;8.30;1.75;;;;;;;17.70;45.04;102092.50;5031871;28;20037;-77
2022/09/16 06:31:39;;;;;;;6.90;1.70;;;;;;;17.70;45.23;102098.03;5021658;28;20507;-78
2022/09/16 06:34:07;;;;;;;7.90;1.63;;;;;;;17.79;44.99;102097.19;5012617;28;20030;-78
2022/09/16 06:36:35;;;;;;;8.25;1.63;;;;;;;17.69;45.33;102110.19;5027999;28;20120;-78
2022/09/16 06:39:03;;;;;;;7.93;2.45;;;;;;;17.78;44.93;102118.50;5032282;28;20030;-78
2022/09/16 06:41:30;;;;;;;5.95;1.70;;;;;;;17.84;44.80;102119.94;5023056;28;20064;-78
2022/09/16 06:43:56;;;;;;;35.17;4.28;;;;;;;17.66;45.62;102118.31;5025577;28;20069;-77
2022/09/16 06:46:24;;;;;;;7.25;1.55;;;;;;;17.78;45.29;102117.69;5032082;28;20060;-79
2022/09/16 06:48:52;;;;;;;6.50;1.63;;;;;;;17.84;45.18;102144.03;5031871;28;20037;-78
2022/09/16 06:51:21;;;;;;;12.55;2.53;;;;;;;17.87;45.15;102118.47;5024973;28;20369;-77
2022/09/16 06:53:48;;;;;;;5.95;2.33;;;;;;;17.75;45.77;102132.97;5012358;28;20022;-80
2022/09/16 06:56:19;;;;;;;8.27;1.70;;;;;;;17.92;45.51;102123.84;5014286;28;20029;-78
2022/09/16 06:58:49;;;;;;;5.63;1.80;;;;;;;17.88;45.72;102129.19;5020845;28;20109;-78
2022/09/16 07:01:17;;;;;;;17.98;2.75;;;;;;;18.00;45.35;102128.53;5014202;28;20116;-78
2022/09/16 07:03:45;;;;;;;5.68;1.65;;;;;;;18.06;45.63;102134.69;5017045;28;20109;-78
2022/09/16 07:06:13;;;;;;;7.93;2.03;;;;;;;18.08;45.67;102144.28;5027172;28;20033;-79
2022/09/16 07:08:39;;;;;;;8.57;2.00;;;;;;;18.28;45.23;102138.00;5030163;28;20079;-77
2022/09/16 07:11:05;;;;;;;5.05;1.95;;;;;;;18.38;45.25;102147.13;5031117;28;20048;-76
2022/09/16 07:13:31;;;;;;;5.35;1.80;;;;;;;18.31;45.60;102147.63;5030283;28;20384;-78
2022/09/16 07:16:02;;;;;;;8.52;1.60;;;;;;;18.43;45.67;102144.16;5030294;28;20609;-76
2022/09/16 07:18:29;;;;;;;20.10;4.38;;;;;;;18.52;45.60;102131.09;5025169;28;20441;-76
2022/09/16 07:21:07;;;;;;;15.68;2.45;;;;;;;18.54;45.92;102139.88;5022849;28;20039;-79
2022/09/16 07:23:35;;;;;;;39.63;6.43;;;;;;;18.72;45.37;102148.91;5035193;28;20030;-77
2022/09/16 07:26:09;;;;;;;2.78;1.33;;;;;;;18.83;45.09;102148.22;5034834;28;20074;-78
